NKS9133 KACY-KFLL
Flight info
| Callsign | NKS9133 |
|---|---|
| Flight time | 2h 30m |
| Altitude | 38000 |
| Route | LEEAH ATR TRPOD Q409 CRPLR KOOKI Q161 CHIEZ Y291 MAJIK CUUDA3 |
| Aircraft | A319/M-SDE3FGHIRWY/LB1 |
Departure
| Time | 2026-05-04 22:02 |
|---|---|
| Airport | Atlantic City International Airport (KACY) |
Arrival
| Time | 2026-05-05 00:33 |
|---|---|
| Airport | Fort Lauderdale Hollywood International Airport (KFLL) |
| Time | Latitude | Longitude | Altitude | Speed | Heading |
|---|---|---|---|---|---|
| 2026-05-04 21:42 | 39.45111 | -74.57397 | 74 ft | 0 kts | 157° |
| 2026-05-04 21:53 | 39.45112 | -74.57398 | 74 ft | 2 kts | 157° |
| 2026-05-04 21:53 | 39.45132 | -74.57411 | 68 ft | 4 kts | 141° |
| 2026-05-04 21:53 | 39.45146 | -74.57426 | 68 ft | 0 kts | 137° |
| 2026-05-04 21:55 | 39.45142 | -74.57410 | 71 ft | 3 kts | 92° |
| 2026-05-04 21:56 | 39.45164 | -74.57392 | 72 ft | 5 kts | 23° |
| 2026-05-04 21:56 | 39.45201 | -74.57359 | 72 ft | 8 kts | 40° |
| 2026-05-04 21:56 | 39.45251 | -74.57375 | 68 ft | 9 kts | 326° |
| 2026-05-04 21:56 | 39.45299 | -74.57418 | 75 ft | 8 kts | 326° |
| 2026-05-04 21:57 | 39.45352 | -74.57432 | 70 ft | 9 kts | 23° |
| 2026-05-04 21:57 | 39.45394 | -74.57364 | 75 ft | 11 kts | 55° |
| 2026-05-04 21:57 | 39.45439 | -74.57281 | 75 ft | 12 kts | 55° |
| 2026-05-04 21:57 | 39.45496 | -74.57245 | 70 ft | 10 kts | 342° |
| 2026-05-04 21:58 | 39.45538 | -74.57323 | 71 ft | 11 kts | 297° |
| 2026-05-04 21:58 | 39.45580 | -74.57425 | 71 ft | 14 kts | 298° |
| 2026-05-04 21:58 | 39.45628 | -74.57541 | 76 ft | 15 kts | 298° |
| 2026-05-04 21:58 | 39.45681 | -74.57669 | 69 ft | 17 kts | 298° |
| 2026-05-04 21:59 | 39.45737 | -74.57786 | 75 ft | 10 kts | 336° |
| 2026-05-04 21:59 | 39.45807 | -74.57745 | 66 ft | 12 kts | 30° |
| 2026-05-04 21:59 | 39.45887 | -74.57691 | 72 ft | 14 kts | 27° |
| 2026-05-04 21:59 | 39.45978 | -74.57629 | 70 ft | 15 kts | 28° |
| 2026-05-04 22:00 | 39.46077 | -74.57560 | 73 ft | 16 kts | 28° |
| 2026-05-04 22:00 | 39.46178 | -74.57491 | 70 ft | 14 kts | 28° |
| 2026-05-04 22:00 | 39.46264 | -74.57432 | 74 ft | 14 kts | 28° |
| 2026-05-04 22:00 | 39.46357 | -74.57367 | 73 ft | 16 kts | 28° |
| 2026-05-04 22:01 | 39.46408 | -74.57389 | 72 ft | 10 kts | 296° |
| 2026-05-04 22:01 | 39.46444 | -74.57479 | 71 ft | 10 kts | 297° |
| 2026-05-04 22:01 | 39.46432 | -74.57519 | 72 ft | 5 kts | 201° |
| 2026-05-04 22:01 | 39.46427 | -74.57523 | 76 ft | 0 kts | 208° |
| 2026-05-04 22:02 | 39.46219 | -74.57664 | 73 ft | 74 kts | 207° |
| 2026-05-04 22:02 | 39.45547 | -74.58123 | 97 ft | 139 kts | 205° |
| 2026-05-04 22:02 | 39.44711 | -74.58704 | 777 ft | 133 kts | 204° |
| 2026-05-04 22:02 | 39.43907 | -74.59268 | 1505 ft | 131 kts | 208° |
| 2026-05-04 22:03 | 39.43044 | -74.59755 | 1975 ft | 143 kts | 205° |
| 2026-05-04 22:03 | 39.42115 | -74.60416 | 2239 ft | 164 kts | 225° |
| 2026-05-04 22:03 | 39.41461 | -74.61744 | 2517 ft | 187 kts | 240° |
| 2026-05-04 22:03 | 39.40768 | -74.63292 | 2799 ft | 211 kts | 239° |
| 2026-05-04 22:04 | 39.39981 | -74.65021 | 3231 ft | 235 kts | 239° |
| 2026-05-04 22:04 | 39.39127 | -74.66886 | 4009 ft | 245 kts | 240° |
| 2026-05-04 22:04 | 39.38251 | -74.68798 | 4990 ft | 248 kts | 241° |
| 2026-05-04 22:04 | 39.37367 | -74.70735 | 5950 ft | 252 kts | 242° |
| 2026-05-04 22:05 | 39.36465 | -74.72703 | 6848 ft | 257 kts | 242° |
| 2026-05-04 22:05 | 39.35549 | -74.74699 | 7737 ft | 260 kts | 243° |
| 2026-05-04 22:05 | 39.34618 | -74.76731 | 8595 ft | 265 kts | 242° |
| 2026-05-04 22:05 | 39.33683 | -74.78769 | 9456 ft | 269 kts | 243° |
| 2026-05-04 22:06 | 39.32710 | -74.80892 | 10212 ft | 277 kts | 243° |
| 2026-05-04 22:06 | 39.31703 | -74.83098 | 10486 ft | 299 kts | 243° |
| 2026-05-04 22:06 | 39.30617 | -74.85469 | 11024 ft | 309 kts | 243° |
| 2026-05-04 22:06 | 39.29516 | -74.87867 | 11764 ft | 313 kts | 243° |
| 2026-05-04 22:07 | 39.28400 | -74.90295 | 12556 ft | 315 kts | 243° |
| 2026-05-04 22:07 | 39.27253 | -74.92717 | 13339 ft | 319 kts | 238° |
| 2026-05-04 22:07 | 39.25763 | -74.94876 | 14059 ft | 327 kts | 226° |
| 2026-05-04 22:07 | 39.23874 | -74.96570 | 14706 ft | 336 kts | 213° |
| 2026-05-04 22:08 | 39.21725 | -74.97828 | 15343 ft | 342 kts | 209° |
| 2026-05-04 22:08 | 39.19538 | -74.99074 | 15977 ft | 345 kts | 209° |
| 2026-05-04 22:08 | 39.17334 | -75.00342 | 16611 ft | 349 kts | 209° |
| 2026-05-04 22:08 | 39.15101 | -75.01629 | 17230 ft | 353 kts | 209° |
| 2026-05-04 22:09 | 39.12852 | -75.02927 | 17861 ft | 356 kts | 209° |
| 2026-05-04 22:09 | 39.10577 | -75.04239 | 18433 ft | 360 kts | 209° |
| 2026-05-04 22:09 | 39.08276 | -75.05563 | 18977 ft | 364 kts | 209° |
| 2026-05-04 22:09 | 39.05954 | -75.06893 | 19517 ft | 367 kts | 209° |
| 2026-05-04 22:10 | 39.03601 | -75.08239 | 20061 ft | 371 kts | 209° |
| 2026-05-04 22:10 | 39.01233 | -75.09593 | 20608 ft | 374 kts | 209° |
| 2026-05-04 22:10 | 38.98845 | -75.10959 | 21147 ft | 378 kts | 210° |
| 2026-05-04 22:10 | 38.96435 | -75.12336 | 21671 ft | 381 kts | 210° |
| 2026-05-04 22:11 | 38.94002 | -75.13725 | 22189 ft | 385 kts | 210° |
| 2026-05-04 22:11 | 38.91543 | -75.15126 | 22712 ft | 388 kts | 210° |
| 2026-05-04 22:11 | 38.89062 | -75.16539 | 23235 ft | 391 kts | 210° |
| 2026-05-04 22:11 | 38.86581 | -75.17950 | 23713 ft | 395 kts | 209° |
| 2026-05-04 22:12 | 38.84043 | -75.19391 | 24144 ft | 397 kts | 209° |
| 2026-05-04 22:12 | 38.81514 | -75.20830 | 24587 ft | 400 kts | 210° |
| 2026-05-04 22:12 | 38.78995 | -75.22355 | 25018 ft | 400 kts | 212° |
| 2026-05-04 22:12 | 38.76519 | -75.24005 | 25460 ft | 401 kts | 213° |
| 2026-05-04 22:13 | 38.74063 | -75.25730 | 25886 ft | 403 kts | 214° |
| 2026-05-04 22:13 | 38.71608 | -75.27485 | 26327 ft | 405 kts | 214° |
| 2026-05-04 22:13 | 38.69141 | -75.29242 | 26764 ft | 407 kts | 214° |
| 2026-05-04 22:13 | 38.66649 | -75.31001 | 27186 ft | 410 kts | 214° |
| 2026-05-04 22:14 | 38.64175 | -75.32726 | 27603 ft | 412 kts | 214° |
| 2026-05-04 22:14 | 38.61641 | -75.34473 | 28025 ft | 414 kts | 213° |
| 2026-05-04 22:14 | 38.59093 | -75.36212 | 28462 ft | 416 kts | 213° |
| 2026-05-04 22:14 | 38.56526 | -75.37956 | 28884 ft | 418 kts | 213° |
| 2026-05-04 22:15 | 38.53950 | -75.39705 | 29306 ft | 420 kts | 213° |
| 2026-05-04 22:15 | 38.51364 | -75.41465 | 29719 ft | 423 kts | 213° |
| 2026-05-04 22:15 | 38.48760 | -75.43246 | 30123 ft | 424 kts | 214° |
| 2026-05-04 22:15 | 38.46156 | -75.45032 | 30458 ft | 426 kts | 214° |
| 2026-05-04 22:16 | 38.43537 | -75.46826 | 30777 ft | 428 kts | 214° |
| 2026-05-04 22:16 | 38.40910 | -75.48621 | 31105 ft | 430 kts | 214° |
| 2026-05-04 22:16 | 38.38268 | -75.50418 | 31431 ft | 431 kts | 214° |
| 2026-05-04 22:16 | 38.35614 | -75.52217 | 31745 ft | 432 kts | 214° |
| 2026-05-04 22:17 | 38.33027 | -75.54133 | 32104 ft | 428 kts | 220° |
| 2026-05-04 22:17 | 38.30582 | -75.56269 | 32553 ft | 425 kts | 220° |
| 2026-05-04 22:17 | 38.28145 | -75.58401 | 33010 ft | 424 kts | 220° |
| 2026-05-04 22:17 | 38.25724 | -75.60518 | 33455 ft | 422 kts | 220° |
| 2026-05-04 22:18 | 38.23309 | -75.62626 | 33935 ft | 419 kts | 220° |
| 2026-05-04 22:18 | 38.20912 | -75.64710 | 34423 ft | 415 kts | 220° |
| 2026-05-04 22:18 | 38.18531 | -75.66776 | 34839 ft | 413 kts | 220° |
| 2026-05-04 22:18 | 38.16168 | -75.68828 | 35208 ft | 411 kts | 220° |
| 2026-05-04 22:19 | 38.13813 | -75.70873 | 35551 ft | 410 kts | 220° |
| 2026-05-04 22:19 | 38.11466 | -75.72910 | 35888 ft | 408 kts | 220° |
| 2026-05-04 22:19 | 38.09120 | -75.74945 | 36221 ft | 407 kts | 220° |
| 2026-05-04 22:19 | 38.06784 | -75.76970 | 36535 ft | 406 kts | 220° |
| 2026-05-04 22:20 | 38.04455 | -75.78988 | 36836 ft | 405 kts | 220° |
| 2026-05-04 22:20 | 38.02128 | -75.81002 | 37123 ft | 404 kts | 220° |
| 2026-05-04 22:20 | 37.99806 | -75.83012 | 37425 ft | 403 kts | 220° |
| 2026-05-04 22:20 | 37.97495 | -75.85008 | 37706 ft | 402 kts | 220° |
| 2026-05-04 22:21 | 37.95177 | -75.87006 | 37930 ft | 403 kts | 220° |
| 2026-05-04 22:21 | 37.90501 | -75.91039 | 37990 ft | 411 kts | 220° |
| 2026-05-04 22:22 | 37.85741 | -75.95130 | 37987 ft | 415 kts | 220° |
| 2026-05-04 22:22 | 37.80958 | -75.99229 | 37987 ft | 415 kts | 220° |
| 2026-05-04 22:23 | 37.76188 | -76.03327 | 37987 ft | 414 kts | 220° |
| 2026-05-04 22:23 | 37.71426 | -76.07408 | 37984 ft | 413 kts | 220° |
| 2026-05-04 22:24 | 37.67468 | -76.10785 | 37985 ft | 413 kts | 220° |
| 2026-05-04 22:24 | 37.62704 | -76.14843 | 37990 ft | 414 kts | 219° |
| 2026-05-04 22:25 | 37.57313 | -76.17688 | 37987 ft | 430 kts | 202° |
| 2026-05-04 22:25 | 37.51510 | -76.19530 | 37985 ft | 429 kts | 202° |
| 2026-05-04 22:26 | 37.45723 | -76.21377 | 37990 ft | 428 kts | 202° |
| 2026-05-04 22:26 | 37.39948 | -76.23230 | 37993 ft | 428 kts | 202° |
| 2026-05-04 22:27 | 37.34190 | -76.25069 | 37992 ft | 427 kts | 202° |
| 2026-05-04 22:27 | 37.28433 | -76.26897 | 37988 ft | 426 kts | 203° |
| 2026-05-04 22:28 | 37.22699 | -76.28712 | 37981 ft | 425 kts | 203° |
| 2026-05-04 22:28 | 37.16970 | -76.30523 | 37980 ft | 424 kts | 203° |
| 2026-05-04 22:29 | 37.11253 | -76.32340 | 37975 ft | 423 kts | 203° |
| 2026-05-04 22:29 | 37.05548 | -76.34145 | 37975 ft | 423 kts | 203° |
| 2026-05-04 22:30 | 36.99846 | -76.35940 | 37972 ft | 422 kts | 203° |
| 2026-05-04 22:30 | 36.94147 | -76.37733 | 38009 ft | 422 kts | 203° |
| 2026-05-04 22:31 | 36.88456 | -76.39528 | 38004 ft | 422 kts | 203° |
| 2026-05-04 22:31 | 36.82771 | -76.41318 | 37995 ft | 421 kts | 203° |
| 2026-05-04 22:32 | 36.77090 | -76.43100 | 37997 ft | 421 kts | 203° |
| 2026-05-04 22:32 | 36.71412 | -76.44878 | 37997 ft | 420 kts | 203° |
| 2026-05-04 22:33 | 36.65780 | -76.46638 | 38006 ft | 420 kts | 203° |
| 2026-05-04 22:33 | 36.60074 | -76.48420 | 38008 ft | 420 kts | 203° |
| 2026-05-04 22:34 | 36.54446 | -76.50168 | 37996 ft | 420 kts | 203° |
| 2026-05-04 22:34 | 36.48787 | -76.51924 | 38007 ft | 419 kts | 204° |
| 2026-05-04 22:35 | 36.43136 | -76.53685 | 38012 ft | 418 kts | 204° |
| 2026-05-04 22:35 | 36.37491 | -76.55443 | 38016 ft | 418 kts | 204° |
| 2026-05-04 22:36 | 36.31854 | -76.57191 | 38027 ft | 416 kts | 204° |
| 2026-05-04 22:36 | 36.26247 | -76.58923 | 38031 ft | 415 kts | 204° |
| 2026-05-04 22:37 | 36.20650 | -76.60655 | 38035 ft | 414 kts | 204° |
| 2026-05-04 22:37 | 36.15061 | -76.62379 | 38040 ft | 413 kts | 204° |
| 2026-05-04 22:38 | 36.09483 | -76.64096 | 38042 ft | 413 kts | 204° |
| 2026-05-04 22:38 | 36.03908 | -76.65814 | 38046 ft | 412 kts | 204° |
| 2026-05-04 22:39 | 35.98342 | -76.67524 | 38050 ft | 412 kts | 204° |
| 2026-05-04 22:39 | 35.92783 | -76.69226 | 38049 ft | 411 kts | 204° |
| 2026-05-04 22:40 | 35.87592 | -76.71732 | 38045 ft | 395 kts | 215° |
| 2026-05-04 22:40 | 35.82668 | -76.74748 | 38048 ft | 395 kts | 215° |
| 2026-05-04 22:41 | 35.77746 | -76.77747 | 38047 ft | 394 kts | 215° |
| 2026-05-04 22:41 | 35.72835 | -76.80743 | 38055 ft | 394 kts | 215° |
| 2026-05-04 22:42 | 35.67932 | -76.83733 | 38060 ft | 393 kts | 215° |
| 2026-05-04 22:42 | 35.63057 | -76.86692 | 38061 ft | 393 kts | 215° |
| 2026-05-04 22:43 | 35.58160 | -76.89656 | 38063 ft | 392 kts | 215° |
| 2026-05-04 22:43 | 35.53285 | -76.92633 | 38064 ft | 391 kts | 216° |
| 2026-05-04 22:44 | 35.48422 | -76.95628 | 38059 ft | 390 kts | 216° |
| 2026-05-04 22:44 | 35.43568 | -76.98606 | 38063 ft | 390 kts | 216° |
| 2026-05-04 22:45 | 35.38724 | -77.01579 | 38062 ft | 389 kts | 216° |
| 2026-05-04 22:45 | 35.31467 | -77.06008 | 38090 ft | 388 kts | 216° |
| 2026-05-04 22:46 | 35.26638 | -77.08937 | 38091 ft | 387 kts | 216° |
| 2026-05-04 22:46 | 35.21829 | -77.11864 | 38089 ft | 386 kts | 216° |
| 2026-05-04 22:47 | 35.17030 | -77.14783 | 38092 ft | 385 kts | 216° |
| 2026-05-04 22:47 | 35.12242 | -77.17695 | 38089 ft | 384 kts | 216° |
| 2026-05-04 22:48 | 35.07455 | -77.20599 | 38087 ft | 384 kts | 216° |
| 2026-05-04 22:48 | 35.02674 | -77.23491 | 38090 ft | 383 kts | 216° |
| 2026-05-04 22:49 | 34.97911 | -77.26377 | 38088 ft | 382 kts | 216° |
| 2026-05-04 22:49 | 34.93153 | -77.29258 | 38087 ft | 381 kts | 216° |
| 2026-05-04 22:50 | 34.88397 | -77.32123 | 38095 ft | 381 kts | 216° |
| 2026-05-04 22:50 | 34.83646 | -77.34978 | 38096 ft | 380 kts | 216° |
| 2026-05-04 22:51 | 34.78909 | -77.37828 | 38097 ft | 379 kts | 216° |
| 2026-05-04 22:51 | 34.74190 | -77.40657 | 38098 ft | 378 kts | 216° |
| 2026-05-04 22:52 | 34.69476 | -77.43485 | 38099 ft | 377 kts | 216° |
| 2026-05-04 22:52 | 34.64780 | -77.46304 | 38099 ft | 376 kts | 216° |
| 2026-05-04 22:53 | 34.60094 | -77.49114 | 38099 ft | 376 kts | 216° |
| 2026-05-04 22:53 | 34.55404 | -77.51915 | 38099 ft | 375 kts | 216° |
| 2026-05-04 22:54 | 34.50523 | -77.54335 | 38098 ft | 391 kts | 204° |
| 2026-05-04 22:54 | 34.45128 | -77.55536 | 38096 ft | 394 kts | 202° |
| 2026-05-04 22:55 | 34.39742 | -77.56715 | 38094 ft | 393 kts | 202° |
| 2026-05-04 22:55 | 34.34372 | -77.57903 | 38093 ft | 391 kts | 202° |
| 2026-05-04 22:56 | 34.29020 | -77.59087 | 38091 ft | 390 kts | 202° |
| 2026-05-04 22:56 | 34.23679 | -77.60259 | 38095 ft | 389 kts | 202° |
| 2026-05-04 22:57 | 34.18391 | -77.61423 | 38099 ft | 388 kts | 202° |
| 2026-05-04 22:57 | 34.13080 | -77.62591 | 38102 ft | 387 kts | 202° |
| 2026-05-04 22:58 | 34.07786 | -77.63753 | 38100 ft | 386 kts | 203° |
| 2026-05-04 22:58 | 34.02509 | -77.64916 | 38103 ft | 385 kts | 203° |
| 2026-05-04 22:59 | 33.97244 | -77.66070 | 38108 ft | 384 kts | 203° |
| 2026-05-04 22:59 | 33.91985 | -77.67220 | 38099 ft | 383 kts | 203° |
| 2026-05-04 23:00 | 33.86749 | -77.68358 | 38169 ft | 382 kts | 203° |
| 2026-05-04 23:00 | 33.81539 | -77.69491 | 38100 ft | 379 kts | 203° |
| 2026-05-04 23:01 | 33.76363 | -77.70616 | 38112 ft | 378 kts | 203° |
| 2026-05-04 23:01 | 33.71187 | -77.71742 | 38103 ft | 378 kts | 203° |
| 2026-05-04 23:02 | 33.66102 | -77.73102 | 38106 ft | 370 kts | 207° |
| 2026-05-04 23:02 | 33.61128 | -77.74732 | 38099 ft | 371 kts | 207° |
| 2026-05-04 23:03 | 33.56151 | -77.76369 | 38093 ft | 371 kts | 207° |
| 2026-05-04 23:03 | 33.51174 | -77.77996 | 38090 ft | 371 kts | 207° |
| 2026-05-04 23:04 | 33.46188 | -77.79619 | 38097 ft | 371 kts | 207° |
| 2026-05-04 23:04 | 33.41210 | -77.81244 | 38098 ft | 371 kts | 207° |
| 2026-05-04 23:05 | 33.36227 | -77.82869 | 38098 ft | 371 kts | 207° |
| 2026-05-04 23:05 | 33.31276 | -77.84475 | 38101 ft | 371 kts | 207° |
| 2026-05-04 23:06 | 33.26292 | -77.86096 | 38106 ft | 371 kts | 207° |
| 2026-05-04 23:06 | 33.21310 | -77.87709 | 38104 ft | 371 kts | 207° |
| 2026-05-04 23:07 | 33.17137 | -77.89060 | 38104 ft | 370 kts | 207° |
| 2026-05-04 23:07 | 33.12165 | -77.90664 | 38109 ft | 371 kts | 206° |
| 2026-05-04 23:08 | 33.07221 | -77.92266 | 38107 ft | 370 kts | 207° |
| 2026-05-04 23:08 | 33.02249 | -77.93889 | 38105 ft | 370 kts | 207° |
| 2026-05-04 23:09 | 32.97307 | -77.95572 | 38109 ft | 369 kts | 207° |
| 2026-05-04 23:09 | 32.92344 | -77.97291 | 38110 ft | 369 kts | 207° |
| 2026-05-04 23:10 | 32.87441 | -77.98983 | 38107 ft | 369 kts | 207° |
| 2026-05-04 23:10 | 32.82478 | -78.00676 | 38105 ft | 369 kts | 207° |
| 2026-05-04 23:11 | 32.77543 | -78.02357 | 38102 ft | 369 kts | 207° |
| 2026-05-04 23:11 | 32.72641 | -78.04023 | 38103 ft | 368 kts | 207° |
| 2026-05-04 23:12 | 32.67714 | -78.05699 | 38099 ft | 368 kts | 207° |
| 2026-05-04 23:12 | 32.62781 | -78.07376 | 38099 ft | 369 kts | 207° |
| 2026-05-04 23:13 | 32.57845 | -78.09056 | 38104 ft | 369 kts | 207° |
| 2026-05-04 23:13 | 32.52904 | -78.10729 | 38106 ft | 369 kts | 206° |
| 2026-05-04 23:14 | 32.47959 | -78.12399 | 38108 ft | 370 kts | 206° |
| 2026-05-04 23:14 | 32.43010 | -78.14077 | 38103 ft | 370 kts | 206° |
| 2026-05-04 23:15 | 32.38070 | -78.15750 | 38113 ft | 370 kts | 206° |
| 2026-05-04 23:15 | 32.33118 | -78.17415 | 38105 ft | 370 kts | 206° |
| 2026-05-04 23:16 | 32.28168 | -78.19083 | 38111 ft | 370 kts | 206° |
| 2026-05-04 23:16 | 32.23217 | -78.20749 | 38107 ft | 370 kts | 206° |
| 2026-05-04 23:17 | 32.18265 | -78.22413 | 38098 ft | 370 kts | 206° |
| 2026-05-04 23:17 | 32.13312 | -78.24081 | 38092 ft | 370 kts | 206° |
| 2026-05-04 23:18 | 32.08353 | -78.25745 | 38093 ft | 370 kts | 206° |
| 2026-05-04 23:18 | 32.03395 | -78.27409 | 38092 ft | 370 kts | 206° |
| 2026-05-04 23:19 | 31.98432 | -78.29064 | 38093 ft | 371 kts | 206° |
| 2026-05-04 23:19 | 31.93474 | -78.30728 | 38093 ft | 371 kts | 206° |
| 2026-05-04 23:20 | 31.88513 | -78.32387 | 38097 ft | 371 kts | 206° |
| 2026-05-04 23:20 | 31.83539 | -78.34041 | 38095 ft | 371 kts | 206° |
| 2026-05-04 23:21 | 31.78568 | -78.35697 | 38097 ft | 371 kts | 206° |
| 2026-05-04 23:21 | 31.73596 | -78.37356 | 38092 ft | 372 kts | 206° |
| 2026-05-04 23:22 | 31.68612 | -78.39013 | 38097 ft | 372 kts | 206° |
| 2026-05-04 23:22 | 31.63657 | -78.40657 | 38086 ft | 373 kts | 206° |
| 2026-05-04 23:23 | 31.58661 | -78.42317 | 38095 ft | 373 kts | 206° |
| 2026-05-04 23:23 | 31.53660 | -78.43975 | 38084 ft | 374 kts | 206° |
| 2026-05-04 23:24 | 31.48647 | -78.45621 | 38087 ft | 375 kts | 205° |
| 2026-05-04 23:24 | 31.43613 | -78.47249 | 38093 ft | 375 kts | 205° |
| 2026-05-04 23:25 | 31.38576 | -78.48871 | 38092 ft | 376 kts | 205° |
| 2026-05-04 23:25 | 31.33528 | -78.50501 | 38090 ft | 376 kts | 205° |
| 2026-05-04 23:26 | 31.28482 | -78.52139 | 38096 ft | 377 kts | 205° |
| 2026-05-04 23:26 | 31.23422 | -78.53777 | 38093 ft | 378 kts | 205° |
| 2026-05-04 23:27 | 31.18351 | -78.55416 | 38095 ft | 378 kts | 205° |
| 2026-05-04 23:27 | 31.13275 | -78.57054 | 38093 ft | 379 kts | 205° |
| 2026-05-04 23:28 | 31.08186 | -78.58697 | 38095 ft | 380 kts | 205° |
| 2026-05-04 23:28 | 31.03093 | -78.60340 | 38092 ft | 380 kts | 205° |
| 2026-05-04 23:29 | 30.97980 | -78.61982 | 38095 ft | 381 kts | 205° |
| 2026-05-04 23:29 | 30.92863 | -78.63624 | 38092 ft | 382 kts | 205° |
| 2026-05-04 23:30 | 30.87742 | -78.65264 | 38093 ft | 382 kts | 205° |
| 2026-05-04 23:30 | 30.82592 | -78.66913 | 38087 ft | 383 kts | 205° |
| 2026-05-04 23:31 | 30.77466 | -78.68556 | 38091 ft | 383 kts | 205° |
| 2026-05-04 23:31 | 30.72321 | -78.70208 | 38085 ft | 384 kts | 205° |
| 2026-05-04 23:32 | 30.67162 | -78.71857 | 38079 ft | 385 kts | 205° |
| 2026-05-04 23:32 | 30.61988 | -78.73500 | 38080 ft | 386 kts | 205° |
| 2026-05-04 23:33 | 30.56797 | -78.75154 | 38081 ft | 387 kts | 205° |
| 2026-05-04 23:33 | 30.51607 | -78.76811 | 38072 ft | 388 kts | 205° |
| 2026-05-04 23:34 | 30.46420 | -78.78457 | 38119 ft | 391 kts | 204° |
| 2026-05-04 23:34 | 30.41096 | -78.80151 | 38109 ft | 402 kts | 204° |
| 2026-05-04 23:35 | 30.35625 | -78.81895 | 38108 ft | 411 kts | 204° |
| 2026-05-04 23:35 | 30.30088 | -78.83647 | 38106 ft | 413 kts | 204° |
| 2026-05-04 23:36 | 30.24529 | -78.85402 | 38106 ft | 414 kts | 203° |
| 2026-05-04 23:36 | 30.18964 | -78.87157 | 38108 ft | 415 kts | 203° |
| 2026-05-04 23:37 | 30.13391 | -78.88906 | 38097 ft | 415 kts | 203° |
| 2026-05-04 23:37 | 30.07829 | -78.90668 | 38090 ft | 415 kts | 203° |
| 2026-05-04 23:38 | 30.02240 | -78.92434 | 38090 ft | 416 kts | 203° |
| 2026-05-04 23:38 | 29.96656 | -78.94197 | 38085 ft | 417 kts | 203° |
| 2026-05-04 23:39 | 29.91053 | -78.95961 | 38089 ft | 417 kts | 203° |
| 2026-05-04 23:39 | 29.85453 | -78.97718 | 38088 ft | 417 kts | 203° |
| 2026-05-04 23:40 | 29.79813 | -78.99377 | 38078 ft | 423 kts | 197° |
| 2026-05-04 23:40 | 29.73986 | -79.00448 | 38083 ft | 424 kts | 197° |
| 2026-05-04 23:41 | 29.68157 | -79.01512 | 38088 ft | 425 kts | 197° |
| 2026-05-04 23:41 | 29.62316 | -79.02588 | 38089 ft | 425 kts | 197° |
| 2026-05-04 23:42 | 29.56469 | -79.03666 | 38086 ft | 426 kts | 197° |
| 2026-05-04 23:42 | 29.50621 | -79.04749 | 38103 ft | 424 kts | 197° |
| 2026-05-04 23:43 | 29.44808 | -79.05832 | 38109 ft | 423 kts | 197° |
| 2026-05-04 23:43 | 29.38994 | -79.06902 | 38106 ft | 423 kts | 197° |
| 2026-05-04 23:44 | 29.33186 | -79.07965 | 38099 ft | 422 kts | 197° |
| 2026-05-04 23:44 | 29.27377 | -79.09023 | 38091 ft | 422 kts | 197° |
| 2026-05-04 23:45 | 29.21579 | -79.10078 | 38089 ft | 422 kts | 197° |
| 2026-05-04 23:45 | 29.15776 | -79.11139 | 38083 ft | 422 kts | 197° |
| 2026-05-04 23:46 | 29.09969 | -79.12198 | 38079 ft | 423 kts | 197° |
| 2026-05-04 23:46 | 29.04152 | -79.13268 | 38071 ft | 423 kts | 197° |
| 2026-05-04 23:47 | 28.98333 | -79.14342 | 38072 ft | 424 kts | 197° |
| 2026-05-04 23:47 | 28.92510 | -79.15406 | 38075 ft | 424 kts | 197° |
| 2026-05-04 23:48 | 28.86676 | -79.16459 | 38080 ft | 424 kts | 197° |
| 2026-05-04 23:48 | 28.81824 | -79.17329 | 38072 ft | 425 kts | 197° |
| 2026-05-04 23:49 | 28.75988 | -79.18386 | 38076 ft | 425 kts | 197° |
| 2026-05-04 23:49 | 28.70151 | -79.19452 | 38079 ft | 425 kts | 197° |
| 2026-05-04 23:50 | 28.64304 | -79.20512 | 38080 ft | 425 kts | 197° |
| 2026-05-04 23:50 | 28.58463 | -79.21567 | 38074 ft | 425 kts | 197° |
| 2026-05-04 23:51 | 28.52621 | -79.22625 | 38071 ft | 425 kts | 197° |
| 2026-05-04 23:51 | 28.46775 | -79.23678 | 38070 ft | 425 kts | 197° |
| 2026-05-04 23:52 | 28.40930 | -79.24737 | 38065 ft | 425 kts | 197° |
| 2026-05-04 23:52 | 28.35084 | -79.25785 | 38059 ft | 425 kts | 197° |
| 2026-05-04 23:53 | 28.29380 | -79.27259 | 38062 ft | 418 kts | 204° |
| 2026-05-04 23:53 | 28.23787 | -79.29090 | 38058 ft | 418 kts | 204° |
| 2026-05-04 23:54 | 28.18193 | -79.30903 | 38059 ft | 419 kts | 204° |
| 2026-05-04 23:54 | 28.12586 | -79.32722 | 38053 ft | 419 kts | 204° |
| 2026-05-04 23:55 | 28.07023 | -79.34527 | 38054 ft | 419 kts | 204° |
| 2026-05-04 23:55 | 28.01408 | -79.36338 | 37687 ft | 419 kts | 204° |
| 2026-05-04 23:56 | 27.98603 | -79.37239 | 37415 ft | 419 kts | 204° |
| 2026-05-04 23:56 | 27.95797 | -79.38143 | 37152 ft | 419 kts | 204° |
| 2026-05-04 23:56 | 27.92989 | -79.39052 | 36892 ft | 420 kts | 204° |
| 2026-05-04 23:56 | 27.90178 | -79.39960 | 36635 ft | 420 kts | 203° |
| 2026-05-04 23:57 | 27.87367 | -79.40869 | 36378 ft | 420 kts | 203° |
| 2026-05-04 23:57 | 27.84560 | -79.41774 | 36128 ft | 421 kts | 203° |
| 2026-05-04 23:57 | 27.81733 | -79.42685 | 35877 ft | 421 kts | 203° |
| 2026-05-04 23:57 | 27.78920 | -79.43590 | 35632 ft | 421 kts | 203° |
| 2026-05-04 23:58 | 27.76099 | -79.44496 | 35385 ft | 421 kts | 203° |
| 2026-05-04 23:58 | 27.73281 | -79.45401 | 35142 ft | 421 kts | 203° |
| 2026-05-04 23:58 | 27.70461 | -79.46308 | 34904 ft | 421 kts | 203° |
| 2026-05-04 23:58 | 27.67642 | -79.47216 | 34669 ft | 421 kts | 203° |
| 2026-05-04 23:59 | 27.64823 | -79.48121 | 34332 ft | 421 kts | 203° |
| 2026-05-04 23:59 | 27.61996 | -79.49030 | 33351 ft | 424 kts | 203° |
| 2026-05-04 23:59 | 27.59158 | -79.49941 | 32449 ft | 424 kts | 203° |
| 2026-05-04 23:59 | 27.56314 | -79.50853 | 31463 ft | 426 kts | 203° |
| 2026-05-05 00:00 | 27.53449 | -79.51771 | 30529 ft | 430 kts | 203° |
| 2026-05-05 00:00 | 27.51539 | -79.52383 | 29800 ft | 433 kts | 203° |
| 2026-05-05 00:00 | 27.47666 | -79.53622 | 28233 ft | 429 kts | 202° |
| 2026-05-05 00:00 | 27.44827 | -79.54523 | 27743 ft | 418 kts | 202° |
| 2026-05-05 00:01 | 27.42067 | -79.55395 | 27487 ft | 410 kts | 202° |
| 2026-05-05 00:01 | 27.39331 | -79.56265 | 27239 ft | 406 kts | 202° |
| 2026-05-05 00:01 | 27.36615 | -79.57129 | 26990 ft | 404 kts | 202° |
| 2026-05-05 00:01 | 27.33916 | -79.57983 | 26716 ft | 403 kts | 202° |
| 2026-05-05 00:02 | 27.31222 | -79.58835 | 26228 ft | 401 kts | 202° |
| 2026-05-05 00:02 | 27.28544 | -79.59679 | 25713 ft | 398 kts | 202° |
| 2026-05-05 00:02 | 27.25888 | -79.60517 | 25207 ft | 396 kts | 202° |
| 2026-05-05 00:02 | 27.23245 | -79.61350 | 24704 ft | 394 kts | 202° |
| 2026-05-05 00:03 | 27.20609 | -79.62180 | 24193 ft | 391 kts | 202° |
| 2026-05-05 00:03 | 27.17987 | -79.63006 | 23696 ft | 390 kts | 202° |
| 2026-05-05 00:03 | 27.15382 | -79.63831 | 23137 ft | 388 kts | 202° |
| 2026-05-05 00:03 | 27.12801 | -79.64652 | 22644 ft | 384 kts | 202° |
| 2026-05-05 00:04 | 27.10240 | -79.65473 | 22154 ft | 381 kts | 202° |
| 2026-05-05 00:04 | 27.07705 | -79.66288 | 21661 ft | 378 kts | 202° |
| 2026-05-05 00:04 | 27.05221 | -79.67087 | 21191 ft | 375 kts | 202° |
| 2026-05-05 00:04 | 27.02688 | -79.67902 | 20705 ft | 372 kts | 202° |
| 2026-05-05 00:05 | 27.00238 | -79.68686 | 20233 ft | 370 kts | 201° |
| 2026-05-05 00:05 | 26.97774 | -79.69469 | 19760 ft | 367 kts | 201° |
| 2026-05-05 00:05 | 26.95318 | -79.70250 | 19290 ft | 365 kts | 201° |
| 2026-05-05 00:05 | 26.92888 | -79.71024 | 18824 ft | 362 kts | 201° |
| 2026-05-05 00:06 | 26.90488 | -79.71787 | 18526 ft | 354 kts | 201° |
| 2026-05-05 00:06 | 26.88135 | -79.72536 | 18058 ft | 350 kts | 201° |
| 2026-05-05 00:06 | 26.85806 | -79.73279 | 17440 ft | 347 kts | 201° |
| 2026-05-05 00:06 | 26.83508 | -79.74013 | 16967 ft | 341 kts | 201° |
| 2026-05-05 00:07 | 26.81232 | -79.74740 | 16530 ft | 338 kts | 201° |
| 2026-05-05 00:07 | 26.78975 | -79.75457 | 16103 ft | 337 kts | 200° |
| 2026-05-05 00:07 | 26.76728 | -79.76168 | 15674 ft | 334 kts | 200° |
| 2026-05-05 00:07 | 26.74501 | -79.76872 | 15244 ft | 332 kts | 200° |
| 2026-05-05 00:08 | 26.72280 | -79.77572 | 14811 ft | 330 kts | 199° |
| 2026-05-05 00:08 | 26.70079 | -79.78267 | 14396 ft | 328 kts | 200° |
| 2026-05-05 00:08 | 26.67915 | -79.79038 | 13982 ft | 325 kts | 202° |
| 2026-05-05 00:08 | 26.65798 | -79.79886 | 13568 ft | 321 kts | 203° |
| 2026-05-05 00:09 | 26.63743 | -79.80751 | 13185 ft | 313 kts | 204° |
| 2026-05-05 00:09 | 26.61714 | -79.81615 | 12728 ft | 311 kts | 204° |
| 2026-05-05 00:09 | 26.59697 | -79.82466 | 12321 ft | 309 kts | 203° |
| 2026-05-05 00:09 | 26.57678 | -79.83309 | 11928 ft | 321 kts | 203° |
| 2026-05-05 00:10 | 26.55472 | -79.84243 | 11528 ft | 349 kts | 203° |
| 2026-05-05 00:10 | 26.53233 | -79.85228 | 11211 ft | 340 kts | 204° |
| 2026-05-05 00:10 | 26.51052 | -79.86216 | 10452 ft | 343 kts | 204° |
| 2026-05-05 00:10 | 26.48859 | -79.87209 | 10173 ft | 332 kts | 204° |
| 2026-05-05 00:11 | 26.46767 | -79.88152 | 10051 ft | 316 kts | 204° |
| 2026-05-05 00:11 | 26.44781 | -79.89040 | 9923 ft | 299 kts | 204° |
| 2026-05-05 00:11 | 26.42899 | -79.89881 | 9748 ft | 284 kts | 204° |
| 2026-05-05 00:11 | 26.41086 | -79.90700 | 9341 ft | 279 kts | 206° |
| 2026-05-05 00:12 | 26.39357 | -79.91629 | 8785 ft | 275 kts | 208° |
| 2026-05-05 00:12 | 26.37660 | -79.92612 | 8229 ft | 275 kts | 210° |
| 2026-05-05 00:12 | 26.36000 | -79.93661 | 8035 ft | 273 kts | 212° |
| 2026-05-05 00:12 | 26.34359 | -79.94737 | 8013 ft | 274 kts | 212° |
| 2026-05-05 00:13 | 26.32713 | -79.95823 | 8026 ft | 275 kts | 212° |
| 2026-05-05 00:13 | 26.31064 | -79.96904 | 8023 ft | 276 kts | 212° |
| 2026-05-05 00:13 | 26.29409 | -79.97982 | 8019 ft | 276 kts | 212° |
| 2026-05-05 00:13 | 26.27746 | -79.99057 | 8021 ft | 276 kts | 212° |
| 2026-05-05 00:14 | 26.26117 | -80.00105 | 8008 ft | 263 kts | 212° |
| 2026-05-05 00:14 | 26.24576 | -80.01095 | 8014 ft | 249 kts | 212° |
| 2026-05-05 00:14 | 26.23097 | -80.02044 | 8012 ft | 243 kts | 212° |
| 2026-05-05 00:14 | 26.21637 | -80.02982 | 8024 ft | 242 kts | 212° |
| 2026-05-05 00:15 | 26.20182 | -80.03919 | 8024 ft | 242 kts | 212° |
| 2026-05-05 00:15 | 26.18846 | -80.05032 | 8029 ft | 240 kts | 226° |
| 2026-05-05 00:15 | 26.17824 | -80.06484 | 8026 ft | 239 kts | 240° |
| 2026-05-05 00:15 | 26.17168 | -80.08180 | 8030 ft | 239 kts | 253° |
| 2026-05-05 00:16 | 26.16653 | -80.09934 | 8020 ft | 239 kts | 252° |
| 2026-05-05 00:16 | 26.16123 | -80.11694 | 8020 ft | 239 kts | 251° |
| 2026-05-05 00:16 | 26.15589 | -80.13448 | 8022 ft | 239 kts | 251° |
| 2026-05-05 00:16 | 26.15129 | -80.15189 | 8020 ft | 231 kts | 259° |
| 2026-05-05 00:17 | 26.15020 | -80.16962 | 8020 ft | 229 kts | 270° |
| 2026-05-05 00:17 | 26.15038 | -80.18734 | 8019 ft | 229 kts | 269° |
| 2026-05-05 00:17 | 26.15047 | -80.20506 | 8021 ft | 229 kts | 269° |
| 2026-05-05 00:17 | 26.15054 | -80.22277 | 8020 ft | 229 kts | 269° |
| 2026-05-05 00:18 | 26.15060 | -80.24049 | 8017 ft | 229 kts | 269° |
| 2026-05-05 00:18 | 26.15067 | -80.25816 | 8019 ft | 228 kts | 269° |
| 2026-05-05 00:18 | 26.15089 | -80.27572 | 7725 ft | 226 kts | 270° |
| 2026-05-05 00:18 | 26.15108 | -80.29320 | 7260 ft | 226 kts | 269° |
| 2026-05-05 00:19 | 26.15104 | -80.31064 | 6805 ft | 225 kts | 269° |
| 2026-05-05 00:19 | 26.15088 | -80.32806 | 6352 ft | 225 kts | 268° |
| 2026-05-05 00:19 | 26.15071 | -80.34547 | 5864 ft | 225 kts | 269° |
| 2026-05-05 00:19 | 26.15049 | -80.36296 | 5376 ft | 227 kts | 269° |
| 2026-05-05 00:20 | 26.15021 | -80.38062 | 4875 ft | 229 kts | 269° |
| 2026-05-05 00:20 | 26.14990 | -80.39840 | 4368 ft | 231 kts | 269° |
| 2026-05-05 00:20 | 26.14956 | -80.41631 | 3852 ft | 233 kts | 269° |
| 2026-05-05 00:20 | 26.14915 | -80.43441 | 3400 ft | 235 kts | 269° |
| 2026-05-05 00:21 | 26.14871 | -80.45255 | 3110 ft | 234 kts | 269° |
| 2026-05-05 00:21 | 26.14830 | -80.47064 | 2998 ft | 233 kts | 269° |
| 2026-05-05 00:21 | 26.14789 | -80.48873 | 3006 ft | 234 kts | 269° |
| 2026-05-05 00:21 | 26.14748 | -80.50688 | 3006 ft | 235 kts | 268° |
| 2026-05-05 00:22 | 26.14712 | -80.52503 | 3007 ft | 235 kts | 269° |
| 2026-05-05 00:22 | 26.14675 | -80.54321 | 3007 ft | 235 kts | 269° |
| 2026-05-05 00:22 | 26.14639 | -80.56115 | 3005 ft | 235 kts | 269° |
| 2026-05-05 00:22 | 26.14602 | -80.57935 | 3001 ft | 235 kts | 269° |
| 2026-05-05 00:23 | 26.14379 | -80.59728 | 3005 ft | 235 kts | 246° |
| 2026-05-05 00:23 | 26.13405 | -80.61137 | 3006 ft | 231 kts | 212° |
| 2026-05-05 00:23 | 26.11936 | -80.61713 | 3003 ft | 222 kts | 178° |
| 2026-05-05 00:23 | 26.10479 | -80.61283 | 3005 ft | 217 kts | 144° |
| 2026-05-05 00:24 | 26.09444 | -80.60106 | 3009 ft | 213 kts | 125° |
| 2026-05-05 00:24 | 26.08634 | -80.58731 | 3004 ft | 212 kts | 118° |
| 2026-05-05 00:24 | 26.07898 | -80.57311 | 3006 ft | 212 kts | 117° |
| 2026-05-05 00:24 | 26.07169 | -80.55887 | 3007 ft | 213 kts | 116° |
| 2026-05-05 00:25 | 26.06755 | -80.54325 | 3006 ft | 211 kts | 91° |
| 2026-05-05 00:25 | 26.06744 | -80.52689 | 3008 ft | 212 kts | 89° |
| 2026-05-05 00:25 | 26.06745 | -80.51053 | 3010 ft | 213 kts | 89° |
| 2026-05-05 00:25 | 26.06741 | -80.49401 | 3011 ft | 211 kts | 89° |
| 2026-05-05 00:26 | 26.06736 | -80.47773 | 3014 ft | 213 kts | 90° |
| 2026-05-05 00:26 | 26.06730 | -80.46125 | 3010 ft | 212 kts | 89° |
| 2026-05-05 00:26 | 26.06724 | -80.44490 | 3015 ft | 212 kts | 89° |
| 2026-05-05 00:26 | 26.06718 | -80.42851 | 3011 ft | 211 kts | 89° |
| 2026-05-05 00:27 | 26.06711 | -80.41215 | 3015 ft | 213 kts | 90° |
| 2026-05-05 00:27 | 26.06705 | -80.39573 | 3015 ft | 211 kts | 89° |
| 2026-05-05 00:27 | 26.06698 | -80.37992 | 3010 ft | 198 kts | 89° |
| 2026-05-05 00:27 | 26.06691 | -80.36494 | 3011 ft | 193 kts | 89° |
| 2026-05-05 00:28 | 26.06685 | -80.34999 | 3012 ft | 190 kts | 89° |
| 2026-05-05 00:28 | 26.06679 | -80.33532 | 2971 ft | 191 kts | 89° |
| 2026-05-05 00:28 | 26.06672 | -80.32057 | 2814 ft | 187 kts | 89° |
| 2026-05-05 00:28 | 26.06665 | -80.30654 | 2577 ft | 175 kts | 89° |
| 2026-05-05 00:29 | 26.06658 | -80.29365 | 2359 ft | 157 kts | 89° |
| 2026-05-05 00:29 | 26.06652 | -80.28240 | 2163 ft | 137 kts | 89° |
| 2026-05-05 00:29 | 26.06648 | -80.27233 | 1998 ft | 129 kts | 89° |
| 2026-05-05 00:29 | 26.06643 | -80.26255 | 1841 ft | 126 kts | 88° |
| 2026-05-05 00:30 | 26.06638 | -80.25291 | 1670 ft | 125 kts | 88° |
| 2026-05-05 00:30 | 26.06634 | -80.24336 | 1517 ft | 123 kts | 88° |
| 2026-05-05 00:30 | 26.06629 | -80.23375 | 1353 ft | 124 kts | 88° |
| 2026-05-05 00:30 | 26.06624 | -80.22426 | 1186 ft | 122 kts | 88° |
| 2026-05-05 00:31 | 26.06619 | -80.21481 | 1019 ft | 122 kts | 88° |
| 2026-05-05 00:31 | 26.06614 | -80.20533 | 858 ft | 123 kts | 89° |
| 2026-05-05 00:31 | 26.06609 | -80.19582 | 692 ft | 123 kts | 88° |
| 2026-05-05 00:31 | 26.06604 | -80.18631 | 550 ft | 124 kts | 88° |
| 2026-05-05 00:32 | 26.06601 | -80.18000 | 455 ft | 122 kts | 89° |
| 2026-05-05 00:32 | 26.06597 | -80.17037 | 267 ft | 124 kts | 90° |
| 2026-05-05 00:32 | 26.06596 | -80.16081 | 109 ft | 124 kts | 90° |
| 2026-05-05 00:32 | 26.06585 | -80.15173 | 24 ft | 105 kts | 90° |
| 2026-05-05 00:33 | 26.06582 | -80.14568 | 39 ft | 38 kts | 90° |
| 2026-05-05 00:33 | 26.06582 | -80.14401 | 47 ft | 20 kts | 90° |
| 2026-05-05 00:33 | 26.06605 | -80.14256 | 54 ft | 16 kts | 60° |
| 2026-05-05 00:33 | 26.06670 | -80.14240 | 50 ft | 12 kts | 313° |
| 2026-05-05 00:34 | 26.06677 | -80.14336 | 49 ft | 11 kts | 268° |
| 2026-05-05 00:34 | 26.06675 | -80.14441 | 45 ft | 16 kts | 270° |
| 2026-05-05 00:34 | 26.06675 | -80.14568 | 42 ft | 16 kts | 269° |
| 2026-05-05 00:34 | 26.06676 | -80.14677 | 32 ft | 16 kts | 270° |
| 2026-05-05 00:35 | 26.06678 | -80.14816 | 21 ft | 20 kts | 272° |
| 2026-05-05 00:35 | 26.06712 | -80.14915 | 18 ft | 11 kts | 329° |
| 2026-05-05 00:35 | 26.06758 | -80.14915 | 15 ft | 4 kts | 56° |
| 2026-05-05 00:35 | 26.06767 | -80.14871 | 15 ft | 7 kts | 90° |
| 2026-05-05 00:36 | 26.06766 | -80.14801 | 15 ft | 11 kts | 90° |
| 2026-05-05 00:36 | 26.06766 | -80.14708 | 16 ft | 13 kts | 90° |
| 2026-05-05 00:36 | 26.06766 | -80.14597 | 16 ft | 15 kts | 90° |
| 2026-05-05 00:36 | 26.06773 | -80.14476 | 18 ft | 14 kts | 83° |
| 2026-05-05 00:37 | 26.06767 | -80.14359 | 16 ft | 15 kts | 84° |
| 2026-05-05 00:37 | 26.06800 | -80.14268 | 16 ft | 13 kts | 28° |
| 2026-05-05 00:37 | 26.06853 | -80.14255 | 16 ft | 1 kts | 0° |
| 2026-05-05 00:37 | 26.06865 | -80.14255 | 18 ft | 3 kts | 0° |
| 2026-05-05 00:38 | 26.06879 | -80.14255 | 16 ft | 1 kts | 0° |
| 2026-05-05 00:38 | 26.06880 | -80.14255 | 16 ft | 0 kts | 0° |